Latest Weather Observations for kunanyi / Mount Wellington

IDT60801

Issued at 10:21 pm EDT Saturday 25 January 2020 (issued every 10 minutes, with the page automatically refreshed every 10 minutes)

About weather observations | Map of weather stations | Latest weather observations for TAS | Other Formats
Station Details ID: 094087 Name: KUNANYI (MOUNT WELLINGTON PINNACLE) Lat: -42.90 Lon: 147.24 Height: 1260.47 m
Data from the previous 72 hours. | See also: Recent months at kunanyi / Mount Wellington
Date/Time
EDT
Temp
°C
App
Temp
°C
Dew
Point
°C
Rel
Hum
%
Delta-T
°C
Wind Press
QNH
hPa
Press
MSL
hPa
Rain since
9am
mm
Dir  Spd
km/h
Gust
km/h
Spd
kts
Gust
kts
25/10:00pm 10.0 3.8 10.0 100 0.0 NW 33 48 18 26 - - 0.0
25/09:30pm 10.0 2.6 10.0 100 0.0 NW 39 50 21 27 - - 0.0
25/09:00pm 10.1 3.5 10.1 100 0.0 WNW 35 50 19 27 - - 0.0
25/08:30pm 10.2 4.2 10.2 100 0.0 WNW 32 39 17 21 - - 0.0
25/08:00pm 10.1 4.5 10.1 100 0.0 NW 30 39 16 21 - - 0.0
25/07:30pm 10.3 5.0 10.0 98 0.2 WNW 28 41 15 22 - - 0.0
25/07:00pm 10.7 5.8 9.9 95 0.4 WNW 26 35 14 19 - - 0.0
25/06:30pm 11.1 7.3 9.9 92 0.7 NW 20 30 11 16 - - 0.0
25/06:00pm 11.3 7.1 9.9 91 0.8 WNW 22 30 12 16 - - 0.0
25/05:30pm 11.0 7.1 9.6 91 0.8 WNW 20 32 11 17 - - 0.0
25/05:00pm 11.2 6.1 9.1 87 1.1 WNW 26 37 14 20 - - 0.0
25/04:30pm 11.5 7.6 9.4 87 1.1 WNW 20 28 11 15 - - 0.0
25/04:07pm 11.9 5.9 8.7 81 1.7 WNW 30 50 16 27 - - 0.0
25/04:00pm 12.0 5.7 9.0 82 1.6 WNW 32 48 17 26 - - 0.0
25/03:30pm 11.4 5.9 9.0 85 1.3 WNW 28 43 15 23 - - 0.0
25/03:00pm 12.0 5.1 8.7 80 1.8 WNW 35 43 19 23 - - 0.0
25/02:30pm 11.3 4.7 8.7 84 1.4 WNW 33 48 18 26 - - 0.0
25/02:01pm 10.9 4.2 8.3 84 1.4 WNW 33 52 18 28 - - 0.0
25/02:00pm 10.8 4.2 8.4 85 1.3 WNW 33 48 18 26 - - 0.0
25/01:30pm 10.4 3.9 8.0 85 1.2 NW 32 50 17 27 - - 0.0
25/01:00pm 10.0 2.4 7.6 85 1.2 WNW 37 52 20 28 - - 0.0
25/12:30pm 10.7 3.0 7.2 79 1.8 NW 37 56 20 30 - - 0.0
25/12:10pm 10.9 4.2 7.2 78 1.9 NW 32 52 17 28 - - 0.0
25/12:00pm 11.2 4.3 7.3 77 2.0 NW 33 43 18 23 - - 0.0
25/11:30am 10.4 3.0 6.9 79 1.8 WNW 35 44 19 24 - - 0.0
25/11:00am 9.1 1.6 6.2 82 1.4 W 35 44 19 24 - - 0.0
25/10:30am 7.9 -0.5 5.4 84 1.2 W 39 57 21 31 - - 0.0
25/10:14am 8.8 -0.3 6.1 83 1.3 W 43 61 23 33 - - 0.0
25/10:00am 7.7 -2.9 5.3 85 1.2 W 50 63 27 34 - - 0.0
25/09:30am 8.1 -2.4 5.4 83 1.3 W 50 63 27 34 - - 0.0
25/09:00am 7.2 -4.1 5.5 89 0.8 W 54 70 29 38 - - 0.0
25/08:30am 5.5 -4.8 4.5 93 0.5 W 48 59 26 32 - - 0.0
25/08:00am 5.4 -4.6 4.4 93 0.5 W 46 57 25 31 - - 0.0
25/07:30am 5.5 -4.6 3.7 88 0.8 WNW 46 59 25 32 - - 0.0
25/07:00am 5.6 -4.9 3.8 88 0.8 W 48 57 26 31 - - 0.0
25/06:30am 5.1 -6.1 3.9 92 0.5 WNW 52 65 28 35 - - 0.0
25/06:00am 5.1 -5.3 4.2 94 0.4 WNW 48 59 26 32 - - 0.0
25/05:30am 4.9 -6.6 4.6 98 0.1 WNW 54 63 29 34 - - 0.0
25/05:00am 5.2 -5.4 5.2 100 0.0 W 50 61 27 33 - - 0.0
25/04:30am 5.0 -5.3 4.7 98 0.1 WNW 48 57 26 31 - - 0.0
25/04:00am 5.2 -4.2 4.5 95 0.3 W 43 57 23 31 - - 0.0
25/03:30am 5.1 -3.9 4.5 96 0.3 WNW 41 50 22 27 - - 0.0
25/03:00am 5.2 -3.9 4.0 92 0.5 W 41 57 22 31 - - 0.0
25/02:30am 5.5 -3.5 4.3 92 0.6 WNW 41 57 22 31 - - 0.0
25/02:27am 5.5 -3.1 4.5 93 0.5 WNW 39 57 21 31 - - 0.0
25/02:00am 5.4 -1.8 4.8 96 0.3 WNW 32 44 17 24 - - 0.0
25/01:30am 5.5 -1.7 4.9 96 0.3 WNW 32 43 17 23 - - 0.0
25/01:00am 5.8 -1.9 5.2 96 0.3 WNW 35 44 19 24 - - 0.0
25/12:30am 6.0 -1.3 5.4 96 0.3 WNW 33 43 18 23 - - 0.0
25/12:00am 6.2 -1.5 5.5 95 0.3 WNW 35 46 19 25 - - 0.0
 
Date/Time
EDT
Temp
°C
App
Temp
°C
Dew
Point
°C
Rel
Hum
%
Delta-T
°C
Wind Press
QNH
hPa
Press
MSL
hPa
Rain since
9am
mm
Dir  Spd
km/h
Gust
km/h
Spd
kts
Gust
kts
24/11:30pm 6.6 -0.4 6.2 97 0.2 NW 32 43 17 23 - - 0.0
24/11:00pm 6.9 1.6 6.6 98 0.1 WNW 24 33 13 18 - - 0.0
24/10:30pm 7.0 2.0 6.4 96 0.3 WNW 22 32 12 17 - - 0.0
24/10:00pm 6.8 1.0 6.1 95 0.3 WNW 26 33 14 18 - - 0.0
24/09:30pm 7.0 -1.8 5.5 90 0.7 WNW 41 54 22 29 - - 0.0
24/09:05pm 7.2 -1.2 5.8 91 0.7 WNW 39 57 21 31 - - 0.0
24/09:00pm 7.2 -1.0 6.6 96 0.3 WNW 39 52 21 28 - - 0.0
24/08:30pm 7.2 -0.7 6.1 93 0.5 NW 37 50 20 27 - - 0.0
24/08:00pm 7.4 0.3 5.5 88 0.9 WNW 32 44 17 24 - - 0.0
24/07:30pm 8.1 0.6 4.7 79 1.6 NW 33 50 18 27 - - 0.0
24/07:01pm 8.1 -0.9 4.5 78 1.7 WNW 41 57 22 31 - - 0.0
24/07:00pm 8.1 -1.3 4.5 78 1.7 WNW 43 57 23 31 - - 0.0
24/06:56pm 8.5 -0.8 4.9 78 1.7 WNW 43 57 23 31 - - 0.0
24/06:30pm 8.1 -2.5 4.9 80 1.5 W 50 82 27 44 - - 0.0
24/06:00pm 7.6 -5.3 4.2 79 1.6 W 61 95 33 51 - - 0.0
24/05:30pm 7.3 -6.3 4.3 81 1.4 W 65 89 35 48 - - 0.0
24/05:01pm 7.4 -4.1 4.5 82 1.4 W 54 80 29 43 - - 0.0
24/05:00pm 7.3 -4.2 4.6 83 1.3 W 54 72 29 39 - - 0.0
24/04:30pm 7.0 -4.8 4.8 86 1.0 WNW 56 74 30 40 - - 0.0
24/04:05pm 7.1 -4.7 4.6 84 1.2 W 56 80 30 43 - - 0.0
24/04:00pm 7.2 -4.3 4.3 82 1.4 WNW 54 72 29 39 - - 0.0
24/03:30pm 7.3 -6.0 3.7 78 1.7 W 63 102 34 55 - - 0.0
24/03:28pm 7.2 -5.7 3.8 79 1.6 W 61 102 33 55 - - 0.0
24/03:00pm 7.3 -4.3 3.7 78 1.7 W 54 83 29 45 - - 0.0
24/02:50pm 7.1 -4.1 3.9 80 1.5 W 52 70 28 38 - - 0.0
24/02:39pm 7.2 -4.5 3.3 76 1.8 W 54 83 29 45 - - 0.0
24/02:30pm 7.6 -5.8 3.3 74 2.0 W 63 85 34 46 - - 0.0
24/02:00pm 6.8 -6.0 2.3 73 2.0 W 59 83 32 45 - - 0.0
24/01:30pm 6.0 -5.7 3.2 82 1.3 W 54 82 29 44 - - 0.0
24/01:04pm 5.1 -5.7 4.2 94 0.4 W 50 72 27 39 - - 0.0
24/01:00pm 5.1 -5.4 3.9 92 0.5 W 48 74 26 40 - - 0.0
24/12:58pm 5.2 -4.9 3.9 91 0.6 W 46 74 25 40 - - 0.0
24/12:30pm 5.4 -5.1 3.6 88 0.8 WNW 48 69 26 37 - - 0.0
24/12:03pm 5.4 -6.6 3.9 90 0.7 W 56 76 30 41 - - 0.0
24/12:00pm 5.7 -6.3 3.9 88 0.8 W 56 74 30 40 - - 0.0
24/11:30am 4.8 -6.4 4.1 95 0.3 W 52 78 28 42 - - 0.0
24/11:00am 5.2 -7.7 4.0 92 0.5 W 61 82 33 44 - - 0.0
24/10:30am 4.9 -8.6 4.9 100 0.0 W 65 87 35 47 - - 0.0
24/10:00am 3.9 -9.8 3.9 100 0.0 W 65 85 35 46 - - 0.0
24/09:41am 4.0 -9.7 4.0 100 0.0 W 65 89 35 48 - - 0.0
24/09:40am 4.0 -9.7 4.0 100 0.0 W 65 89 35 48 - - 0.0
24/09:30am 3.8 -7.8 3.8 100 0.0 W 54 76 29 41 - - 0.0
24/09:00am 3.5 -8.2 3.5 100 0.0 WNW 54 76 29 41 - - 5.6
24/08:30am 3.2 -8.9 3.2 100 0.0 W 56 80 30 43 - - 5.6
24/08:02am 3.1 -9.0 3.1 100 0.0 W 56 76 30 41 - - 5.6
24/08:00am 3.0 -9.1 3.0 100 0.0 W 56 72 30 39 - - 5.6
24/07:30am 3.2 -8.1 3.2 100 0.0 WNW 52 82 28 44 - - 5.4
24/07:06am 3.1 -9.6 3.1 100 0.0 WNW 59 78 32 42 - - 5.4
24/07:00am 3.1 -9.6 3.1 100 0.0 WNW 59 72 32 39 - - 5.4
24/06:30am 2.9 -9.4 2.9 100 0.0 WNW 57 82 31 44 - - 5.2
24/06:04am 2.8 -9.6 2.8 100 0.0 WNW 57 76 31 41 - - 5.2
24/06:00am 2.8 -9.9 2.8 100 0.0 WNW 59 76 32 41 - - 5.2
24/05:30am 2.6 -11.3 2.6 100 0.0 WNW 65 89 35 48 - - 5.0
24/05:22am 2.6 -12.1 2.6 100 0.0 WNW 69 89 37 48 - - 5.0
24/05:00am 2.3 -13.0 2.3 100 0.0 NW 72 87 39 47 - - 5.0
24/04:39am 2.2 -13.5 2.1 99 0.0 WNW 74 95 40 51 - - 5.0
24/04:30am 2.4 -14.0 2.3 99 0.0 WNW 78 95 42 51 - - 5.0
24/04:14am 2.3 -12.5 1.9 97 0.2 WNW 69 89 37 48 - - 5.0
24/04:00am 2.1 -13.3 1.8 98 0.1 WNW 72 91 39 49 - - 5.0
24/03:32am 1.7 -14.1 1.3 97 0.2 WNW 74 95 40 51 - - 5.0
24/03:30am 1.8 -13.7 1.2 96 0.2 WNW 72 89 39 48 - - 5.0
24/03:04am 1.7 -12.8 1.4 98 0.1 WNW 67 89 36 48 - - 5.0
24/03:00am 1.4 -12.8 1.0 97 0.2 WNW 65 82 35 44 - - 5.0
24/02:38am 1.3 -13.3 0.6 95 0.3 WNW 67 85 36 46 - - 5.0
24/02:30am 1.7 -13.3 0.8 94 0.4 WNW 69 83 37 45 - - 5.0
24/02:00am 1.5 -13.6 0.2 91 0.5 W 69 91 37 49 - - 5.0
24/01:30am 1.6 -14.0 0.6 93 0.4 W 72 95 39 51 - - 5.0
24/01:00am 1.9 -13.0 1.5 97 0.2 W 69 91 37 49 - - 5.0
24/12:30am 1.9 -13.0 1.5 97 0.2 W 69 91 37 49 - - 5.0
24/12:00am 2.0 -10.9 1.6 97 0.2 W 59 85 32 46 - - 5.0
 
Date/Time
EDT
Temp
°C
App
Temp
°C
Dew
Point
°C
Rel
Hum
%
Delta-T
°C
Wind Press
QNH
hPa
Press
MSL
hPa
Rain since
9am
mm
Dir  Spd
km/h
Gust
km/h
Spd
kts
Gust
kts
23/11:30pm 2.3 -12.5 1.9 97 0.2 W 69 96 37 52 - - 5.0
23/11:00pm 2.4 -12.3 2.4 100 0.0 W 69 96 37 52 - - 5.0
23/10:30pm 2.6 -12.3 2.6 100 0.0 W 70 95 38 51 - - 5.0
23/10:17pm 2.5 -12.8 2.5 100 0.0 WNW 72 102 39 55 - - 5.0
23/10:12pm 2.6 -12.6 2.6 100 0.0 WNW 72 102 39 55 - - 5.0
23/10:10pm 2.6 -12.3 2.6 100 0.0 WNW 70 102 38 55 - - 5.0
23/10:00pm 2.6 -10.2 2.6 100 0.0 WNW 59 85 32 46 - - 5.0
23/09:30pm 2.9 -10.2 2.9 100 0.0 WNW 61 93 33 50 - - 4.8
23/09:02pm 2.7 -10.8 2.6 99 0.0 WNW 63 82 34 44 - - 4.8
23/09:00pm 2.7 -11.2 2.6 99 0.0 WNW 65 82 35 44 - - 4.8
23/08:41pm 2.9 -10.6 2.9 100 0.0 WNW 63 82 34 44 - - 4.8
23/08:30pm 3.2 -9.5 3.1 99 0.0 NW 59 76 32 41 - - 4.8
23/08:05pm 3.6 -8.2 2.9 95 0.3 WNW 54 72 29 39 - - 4.8
23/08:00pm 3.6 -8.7 3.0 96 0.3 WNW 57 70 31 38 - - 4.8
23/07:40pm 3.9 -8.4 3.2 95 0.3 NW 57 76 31 41 - - 4.8
23/07:30pm 4.2 -8.4 3.5 95 0.3 NW 59 74 32 40 - - 4.8
23/07:00pm 4.7 -8.2 4.1 96 0.3 NW 61 80 33 43 - - 4.8
23/06:30pm 5.0 -6.9 4.3 95 0.3 NW 56 76 30 41 - - 4.6
23/06:03pm 5.3 -7.1 4.7 96 0.3 NW 59 78 32 42 - - 4.6
23/06:00pm 5.1 -8.1 4.5 96 0.3 NW 63 78 34 42 - - 4.6
23/05:34pm 5.2 -8.2 5.2 100 0.0 WNW 65 85 35 46 - - 4.6
23/05:30pm 5.3 -8.1 5.3 100 0.0 WNW 65 82 35 44 - - 4.6
23/05:11pm 5.1 -6.6 5.1 100 0.0 NW 56 76 30 41 - - 4.6
23/05:00pm 5.6 -5.3 5.6 100 0.0 NW 52 69 28 37 - - 4.6
23/04:38pm 6.2 -2.1 6.2 100 0.0 NW 39 63 21 34 - - 3.6
23/04:30pm 6.4 -1.5 6.4 100 0.0 NNW 37 50 20 27 - - 3.2
23/04:12pm 6.7 -0.7 6.7 100 0.0 NNW 35 56 19 30 - - 3.0
23/04:00pm 7.5 0.7 7.5 100 0.0 NNW 33 46 18 25 - - 2.6
23/03:30pm 7.3 -0.4 7.3 100 0.0 NNW 37 57 20 31 - - 2.4
23/03:28pm 7.2 -0.5 7.2 100 0.0 NNW 37 57 20 31 - - 2.4
23/03:00pm 6.5 -1.0 6.5 100 0.0 NW 35 46 19 25 - - 2.4
23/02:30pm 7.9 1.7 7.9 100 0.0 NNW 30 43 16 23 - - 1.2
23/02:12pm 6.7 0.6 6.7 100 0.0 NW 28 48 15 26 - - 1.2
23/02:00pm 6.4 0.6 6.4 100 0.0 NW 26 39 14 21 - - 0.4
23/01:30pm 6.7 0.6 6.7 100 0.0 NW 28 46 15 25 - - 0.0
23/01:28pm 6.5 0.4 6.5 100 0.0 NW 28 46 15 25 - - 0.0
23/01:00pm 7.1 1.1 7.1 100 0.0 NW 28 43 15 23 - - 0.0
23/12:30pm 6.1 -0.1 6.1 100 0.0 NW 28 39 15 21 - - 0.0
23/12:00pm 6.4 1.0 6.4 100 0.0 NW 24 37 13 20 - - 0.0
23/11:30am 6.0 0.5 5.9 99 0.0 NW 24 39 13 21 - - 0.0
23/11:00am 5.6 -0.4 5.5 99 0.0 NW 26 35 14 19 - - 0.0
23/10:30am 5.2 -1.2 5.2 100 0.0 WNW 28 35 15 19 - - 0.0
23/10:00am 4.8 -2.6 4.8 100 0.0 NW 33 39 18 21 - - 0.0
23/09:30am 4.8 -4.2 4.8 100 0.0 NW 41 46 22 25 - - 0.0
23/09:00am 4.9 -4.6 4.9 100 0.0 NW 44 57 24 31 - - 24.6
23/08:30am 5.1 -3.8 5.1 100 0.0 NW 41 54 22 29 - - 24.4
23/08:00am 5.1 -4.7 5.1 100 0.0 NW 46 61 25 33 - - 24.4
23/07:34am 5.7 -3.4 5.7 100 0.0 NW 43 61 23 33 - - 24.2
23/07:30am 5.8 -3.3 5.8 100 0.0 NW 43 61 23 33 - - 24.2
23/07:00am 6.3 -2.0 6.3 100 0.0 NNW 39 54 21 29 - - 23.4
23/06:34am 7.0 -0.3 7.0 100 0.0 NNW 35 56 19 30 - - 22.2
23/06:30am 7.0 -0.7 7.0 100 0.0 NNW 37 56 20 30 - - 21.8
23/06:18am 6.9 -2.6 6.9 100 0.0 N 46 65 25 35 - - 21.2
23/06:00am 7.1 -3.1 7.1 100 0.0 NNW 50 67 27 36 - - 20.4
23/05:30am 6.9 -4.1 6.9 100 0.0 NNW 54 76 29 41 - - 19.4
23/05:00am 7.0 -3.2 7.0 100 0.0 NNW 50 72 27 39 - - 18.8
23/04:45am 7.1 -4.2 7.1 100 0.0 NNW 56 76 30 41 - - 18.4
23/04:30am 7.1 -3.8 7.1 100 0.0 NNW 54 72 29 39 - - 17.8
23/04:00am 7.2 -4.1 7.2 100 0.0 NNW 56 76 30 41 - - 16.6
23/03:59am 7.2 -4.1 7.2 100 0.0 NNW 56 76 30 41 - - 16.6
23/03:30am 6.8 -3.8 6.8 100 0.0 NNW 52 63 28 34 - - 15.4
23/03:00am 7.8 -5.1 7.8 100 0.0 NNW 65 85 35 46 - - 14.4
23/02:31am 7.8 -4.3 7.8 100 0.0 NNW 61 80 33 43 - - 13.6
23/02:30am 7.9 -4.2 7.9 100 0.0 NNW 61 78 33 42 - - 13.4
23/02:00am 7.6 -3.2 7.6 100 0.0 NW 54 72 29 39 - - 10.4
23/01:39am 7.8 -1.1 7.7 99 0.1 NW 44 63 24 34 - - 8.8
23/01:30am 8.1 -1.5 8.0 99 0.1 NW 48 65 26 35 - - 8.2
23/01:15am 8.3 0.5 8.3 100 0.0 NW 39 57 21 31 - - 7.2
23/01:00am 7.7 0.1 7.7 100 0.0 WNW 37 48 20 26 - - 6.4
23/12:36am 8.0 1.3 8.0 100 0.0 NW 33 54 18 29 - - 4.6
23/12:30am 8.2 2.1 8.2 100 0.0 NNW 30 43 16 23 - - 3.8
23/12:00am 9.8 2.7 9.7 99 0.1 N 37 48 20 26 - - 1.8
 
Date/Time
EDT
Temp
°C
App
Temp
°C
Dew
Point
°C
Rel
Hum
%
Delta-T
°C
Wind Press
QNH
hPa
Press
MSL
hPa
Rain since
9am
mm
Dir  Spd
km/h
Gust
km/h
Spd
kts
Gust
kts
22/11:30pm 10.4 3.1 10.1 98 0.2 NNW 39 50 21 27 - - 0.8
22/11:00pm 10.3 2.3 10.3 100 0.0 NNW 43 54 23 29 - - 0.0
22/10:31pm 10.8 3.7 9.7 93 0.6 NW 37 57 20 31 - - 0.0
22/10:30pm 10.8 4.1 9.6 92 0.6 NW 35 54 19 29 - - 0.0
22/10:25pm 11.2 3.6 9.1 87 1.1 NNW 39 56 21 30 - - 0.0

Other formats

Comma delimited format used in spreadsheet applications
http://www.bom.gov.au/fwo/IDT60801/IDT60801.95979.axf

JavaScript Object Notation format (JSON) in row-major order
http://www.bom.gov.au/fwo/IDT60801/IDT60801.95979.json

Data quality

Most of these data are generated automatically and are frequently updated. Quality checks on data are not normally performed. It is possible for incorrect values to appear. Refer to information at About Latest Weather Observations and please check the disclaimer before using these data.